createdAt,value
2018-07-14T00:00:34.297Z,17.17
2018-07-14T00:03:02.961Z,17.14
2018-07-14T00:05:32.235Z,17.12
2018-07-14T00:08:00.751Z,17.20
2018-07-14T00:10:30.013Z,17.28
2018-07-14T00:12:58.654Z,17.19
2018-07-14T00:15:27.835Z,17.19
2018-07-14T00:17:57.267Z,17.11
2018-07-14T00:20:26.653Z,17.06
2018-07-14T00:22:55.502Z,16.95
2018-07-14T00:25:29.266Z,16.94
2018-07-14T00:27:58.257Z,16.87
2018-07-14T00:30:26.825Z,16.95
2018-07-14T00:32:56.394Z,17.01
2018-07-14T00:35:25.050Z,16.97
2018-07-14T00:37:53.614Z,16.99
2018-07-14T00:40:23.023Z,17.01
2018-07-14T00:42:52.171Z,17.05
2018-07-14T00:45:21.448Z,17.12
2018-07-14T00:47:49.989Z,17.13
2018-07-14T00:50:18.807Z,17.09
2018-07-14T00:52:47.360Z,17.12
2018-07-14T00:55:16.040Z,16.97
2018-07-14T00:57:45.153Z,16.83
2018-07-14T01:00:14.645Z,16.76
2018-07-14T01:02:43.162Z,16.75
2018-07-14T01:05:11.787Z,16.71
2018-07-14T01:07:40.314Z,16.77
2018-07-14T01:10:08.965Z,16.84
2018-07-14T01:12:38.402Z,16.79
2018-07-14T01:15:08.067Z,16.83
2018-07-14T01:17:38.887Z,16.89
2018-07-14T01:20:07.499Z,16.95
2018-07-14T01:22:36.521Z,16.93
2018-07-14T01:25:05.385Z,16.85
2018-07-14T01:27:34.497Z,16.87
2018-07-14T01:30:03.365Z,16.77
2018-07-14T01:32:32.418Z,16.77
2018-07-14T01:35:01.349Z,16.82
2018-07-14T01:37:30.449Z,16.77
2018-07-14T01:39:59.489Z,16.75
2018-07-14T01:42:28.697Z,16.76
2018-07-14T01:44:57.234Z,16.78
2018-07-14T01:47:25.757Z,16.77
2018-07-14T01:49:54.349Z,16.73
2018-07-14T01:52:23.126Z,16.75
2018-07-14T01:54:51.656Z,16.75
2018-07-14T01:57:20.221Z,16.65
2018-07-14T01:59:48.775Z,16.63
2018-07-14T02:02:17.369Z,16.61
2018-07-14T02:04:46.262Z,16.55
2018-07-14T02:07:14.840Z,16.47
2018-07-14T02:09:43.437Z,16.48
2018-07-14T02:12:12.098Z,16.48
2018-07-14T02:14:40.696Z,16.44
2018-07-14T02:17:09.772Z,16.43
2018-07-14T02:19:39.364Z,16.40
2018-07-14T02:22:08.026Z,16.43
2018-07-14T02:24:36.501Z,16.48
2018-07-14T02:27:05.049Z,16.58
2018-07-14T02:29:33.906Z,16.58
2018-07-14T02:32:02.585Z,16.55
2018-07-14T02:34:31.077Z,16.38
2018-07-14T02:36:59.656Z,16.18
2018-07-14T02:39:28.187Z,15.93
2018-07-14T02:41:56.831Z,15.91
2018-07-14T02:44:25.376Z,15.96
2018-07-14T02:46:53.962Z,15.96
2018-07-14T02:49:22.849Z,16.03
2018-07-14T02:51:51.469Z,15.93
2018-07-14T02:54:20.157Z,16.02
2018-07-14T02:56:49.951Z,15.98
2018-07-14T02:59:18.445Z,16.02
2018-07-14T03:01:46.994Z,16.05
2018-07-14T03:04:15.570Z,16.03
2018-07-14T03:06:44.150Z,15.99
2018-07-14T03:09:13.358Z,16.04
2018-07-14T03:11:42.909Z,16.01
2018-07-14T03:14:11.715Z,15.85
2018-07-14T03:16:40.225Z,15.87
2018-07-14T03:19:08.795Z,15.76
2018-07-14T03:21:37.338Z,15.86
2018-07-14T03:24:07.491Z,15.93
2018-07-14T03:26:36.056Z,15.96
2018-07-14T03:29:05.907Z,15.95
2018-07-14T03:31:34.985Z,15.92
2018-07-14T03:34:04.408Z,15.99
2018-07-14T03:36:33.628Z,16.07
2018-07-14T03:39:05.517Z,16.14
2018-07-14T03:41:34.949Z,16.11
2018-07-14T03:44:03.910Z,16.02
2018-07-14T03:46:32.822Z,15.97
2018-07-14T03:49:02.339Z,15.95
2018-07-14T03:51:33.735Z,15.88
2018-07-14T03:54:05.290Z,15.90
2018-07-14T03:56:34.104Z,15.96
2018-07-14T03:59:04.499Z,16.07
2018-07-14T04:01:33.911Z,16.15
2018-07-14T04:04:02.641Z,16.24
2018-07-14T04:06:31.659Z,16.23
2018-07-14T04:09:00.298Z,16.32
2018-07-14T04:11:28.901Z,16.31
2018-07-14T04:13:57.624Z,16.22
2018-07-14T04:16:26.717Z,16.01
2018-07-14T04:18:55.468Z,16.08
2018-07-14T04:21:24.049Z,16.05
2018-07-14T04:23:52.752Z,15.95
2018-07-14T04:26:21.313Z,15.88
2018-07-14T04:28:50.026Z,15.92
2018-07-14T04:31:18.626Z,15.95
2018-07-14T04:33:47.274Z,16.01
2018-07-14T04:36:15.830Z,16.03
2018-07-14T04:38:44.339Z,16.06
2018-07-14T04:41:12.959Z,16.09
2018-07-14T04:43:41.568Z,16.12
2018-07-14T04:46:10.782Z,16.01
2018-07-14T04:48:39.457Z,16.06
2018-07-14T04:51:08.290Z,16.14
2018-07-14T04:53:36.807Z,16.06
2018-07-14T04:56:05.451Z,16.14
2018-07-14T04:58:34.201Z,16.25
2018-07-14T05:01:02.761Z,16.33
2018-07-14T05:03:32.254Z,16.44
2018-07-14T05:06:01.148Z,16.49
2018-07-14T05:08:29.775Z,16.46
2018-07-14T05:10:59.093Z,16.48
2018-07-14T05:13:28.225Z,16.48
2018-07-14T05:15:56.699Z,16.54
2018-07-14T05:18:25.937Z,16.60
2018-07-14T05:20:54.481Z,16.66
2018-07-14T05:23:23.233Z,16.61
2018-07-14T05:25:51.732Z,16.66
2018-07-14T05:29:49.880Z,16.62
2018-07-14T05:32:19.143Z,16.71
2018-07-14T05:34:47.818Z,16.81
2018-07-14T05:37:17.266Z,16.82
2018-07-14T05:39:45.954Z,16.84
2018-07-14T05:42:16.397Z,16.85
2018-07-14T05:44:46.123Z,16.77
2018-07-14T05:47:15.844Z,16.73
2018-07-14T05:49:44.460Z,16.77
2018-07-14T05:52:13.069Z,16.84
2018-07-14T05:54:41.564Z,16.89
2018-07-14T05:57:10.854Z,16.82
2018-07-14T05:59:39.991Z,16.71
2018-07-14T06:02:08.657Z,16.66
2018-07-14T06:04:37.153Z,16.66
2018-07-14T06:07:05.717Z,16.68
2018-07-14T06:09:34.932Z,16.75
2018-07-14T06:12:04.261Z,16.90
2018-07-14T06:14:32.896Z,17.02
2018-07-14T06:17:02.532Z,17.09
2018-07-14T06:19:31.386Z,17.19
2018-07-14T06:21:59.975Z,17.25
2018-07-14T06:24:28.600Z,17.31
2018-07-14T06:26:57.351Z,17.42
2018-07-14T06:29:26.028Z,17.46
2018-07-14T06:31:54.590Z,17.54
2018-07-14T06:34:23.079Z,17.61
2018-07-14T06:36:51.617Z,17.70
2018-07-14T06:39:20.221Z,17.77
2018-07-14T06:41:48.903Z,17.89
2018-07-14T06:44:18.489Z,18.01
2018-07-14T06:46:47.774Z,18.08
2018-07-14T06:49:18.105Z,18.10
2018-07-14T06:51:46.653Z,18.19
2018-07-14T06:54:16.899Z,18.26
2018-07-14T06:56:47.386Z,18.38
2018-07-14T06:59:15.917Z,18.52
2018-07-14T07:01:46.402Z,18.58
2018-07-14T07:04:17.602Z,18.63
2018-07-14T07:06:46.644Z,18.72
2018-07-14T07:09:18.753Z,18.74
2018-07-14T07:11:48.874Z,18.67
2018-07-14T07:14:17.507Z,18.62
2018-07-14T07:16:48.085Z,18.52
2018-07-14T07:19:17.933Z,18.41
2018-07-14T07:21:47.633Z,18.42
2018-07-14T07:24:17.967Z,18.56
2018-07-14T07:26:48.419Z,18.76
2018-07-14T07:29:17.027Z,18.86
2018-07-14T07:31:46.023Z,18.89
2018-07-14T07:34:14.567Z,18.86
2018-07-14T07:36:44.137Z,18.83
2018-07-14T07:39:12.644Z,18.90
2018-07-14T07:41:42.260Z,18.96
2018-07-14T07:44:11.604Z,19.07
2018-07-14T07:46:40.088Z,19.06
2018-07-14T07:49:08.698Z,19.11
2018-07-14T07:51:37.219Z,19.15
2018-07-14T07:54:05.984Z,19.25
2018-07-14T07:56:34.475Z,19.35
2018-07-14T07:59:03.307Z,19.30
2018-07-14T08:01:31.833Z,19.23
2018-07-14T08:04:01.188Z,19.09
2018-07-14T08:06:29.871Z,19.03
2018-07-14T08:08:58.517Z,19.06
2018-07-14T08:11:27.965Z,19.09
2018-07-14T08:13:57.340Z,19.13
2018-07-14T08:16:26.455Z,18.95
2018-07-14T08:18:55.272Z,18.80
2018-07-14T08:21:25.498Z,18.82
2018-07-14T08:23:54.405Z,18.83
2018-07-14T08:26:23.308Z,18.89
2018-07-14T08:28:52.330Z,19.06
2018-07-14T08:31:22.076Z,19.27
2018-07-14T08:36:27.141Z,19.01
2018-07-14T08:38:57.268Z,18.96
2018-07-14T08:41:27.884Z,19.07
2018-07-14T08:44:00.111Z,19.12
2018-07-14T08:46:31.724Z,19.14
2018-07-14T08:49:02.863Z,18.97
2018-07-14T08:51:32.379Z,19.00
2018-07-14T08:54:01.609Z,19.09
2018-07-14T08:56:30.754Z,19.13
2018-07-14T08:59:00.026Z,19.16
2018-07-14T09:01:28.628Z,19.28
2018-07-14T09:03:57.304Z,19.41
2018-07-14T09:06:26.093Z,19.53
2018-07-14T09:08:56.596Z,19.58
2018-07-14T09:11:25.467Z,19.71
2018-07-14T09:13:56.246Z,19.75
2018-07-14T09:16:25.865Z,19.86
2018-07-14T09:18:54.620Z,19.92
2018-07-14T09:21:23.152Z,20.04
2018-07-14T09:23:51.720Z,20.10
2018-07-14T09:26:20.957Z,19.91
2018-07-14T09:28:50.150Z,19.81
2018-07-14T09:31:19.120Z,19.88
2018-07-14T09:33:50.097Z,19.92
2018-07-14T09:36:18.764Z,20.05
2018-07-14T09:38:48.258Z,20.10
2018-07-14T09:41:17.616Z,20.08
2018-07-14T09:43:47.841Z,20.15
2018-07-14T09:46:17.206Z,20.23
2018-07-14T09:48:46.205Z,20.14
2018-07-14T09:51:16.269Z,20.13
2018-07-14T09:53:45.223Z,20.18
2018-07-14T09:56:13.869Z,20.30
2018-07-14T09:58:42.407Z,20.48
2018-07-14T10:01:12.622Z,20.66
2018-07-14T10:03:41.865Z,20.82
2018-07-14T10:06:10.836Z,20.85
2018-07-14T10:08:39.686Z,20.98
2018-07-14T10:11:08.238Z,21.09
2018-07-14T10:13:37.724Z,21.27
2018-07-14T10:16:06.347Z,21.40
2018-07-14T10:18:35.062Z,21.52
2018-07-14T10:21:03.724Z,21.67
2018-07-14T10:23:32.481Z,21.77
2018-07-14T10:26:01.191Z,21.58
2018-07-14T10:28:30.823Z,21.46
2018-07-14T10:30:59.604Z,21.41
2018-07-14T10:33:28.331Z,21.60
2018-07-14T10:35:56.775Z,21.73
2018-07-14T10:38:26.161Z,21.82
2018-07-14T10:40:55.329Z,21.70
2018-07-14T10:43:24.732Z,21.55
2018-07-14T10:45:53.389Z,21.73
2018-07-14T10:48:22.921Z,21.97
2018-07-14T10:50:51.538Z,22.16
2018-07-14T10:53:20.253Z,22.25
2018-07-14T10:55:48.997Z,22.16
2018-07-14T10:58:17.673Z,22.13
2018-07-14T11:00:46.694Z,22.27
2018-07-14T11:03:15.306Z,22.30
2018-07-14T11:05:45.518Z,22.16
2018-07-14T11:08:15.029Z,22.12
2018-07-14T11:10:43.603Z,22.14
2018-07-14T11:13:12.656Z,22.17
2018-07-14T11:15:41.311Z,22.24
2018-07-14T11:18:10.611Z,22.42
2018-07-14T11:20:40.215Z,22.55
2018-07-14T11:23:10.650Z,22.64
2018-07-14T11:25:40.851Z,22.65
2018-07-14T11:28:11.841Z,22.71
2018-07-14T11:30:41.553Z,22.72
2018-07-14T11:33:11.782Z,22.68
2018-07-14T11:35:40.386Z,22.75
2018-07-14T11:38:10.584Z,22.81
2018-07-14T11:40:40.440Z,22.80
2018-07-14T11:43:09.296Z,22.66
2018-07-14T11:45:37.891Z,22.75
2018-07-14T11:48:07.184Z,22.64
2018-07-14T11:50:35.887Z,22.75
2018-07-14T11:53:05.834Z,22.85
2018-07-14T11:55:34.299Z,22.83
2018-07-14T11:58:03.290Z,23.04
2018-07-14T12:00:32.046Z,23.32
2018-07-14T12:03:01.637Z,23.26
2018-07-14T12:05:30.135Z,23.17
2018-07-14T12:07:59.398Z,23.16
2018-07-14T12:10:28.265Z,23.03
2018-07-14T12:12:57.420Z,23.17
2018-07-14T12:15:26.193Z,23.13
2018-07-14T12:17:54.786Z,23.28
2018-07-14T12:20:23.916Z,23.38
2018-07-14T12:22:52.652Z,23.61
2018-07-14T12:25:21.418Z,23.69
2018-07-14T12:27:51.691Z,23.95
2018-07-14T12:30:22.449Z,24.15
2018-07-14T12:32:52.101Z,24.16
2018-07-14T12:35:21.574Z,24.17
2018-07-14T12:37:51.173Z,24.06
2018-07-14T12:40:19.692Z,24.11
2018-07-14T12:42:49.043Z,24.53
2018-07-14T12:45:18.377Z,24.73
2018-07-14T12:47:47.463Z,24.74
2018-07-14T12:50:16.701Z,24.77
2018-07-14T12:52:46.896Z,24.80
2018-07-14T12:55:16.790Z,24.92
2018-07-14T12:57:45.912Z,25.13
2018-07-14T13:00:14.927Z,25.26
2018-07-14T13:02:44.845Z,25.22
2018-07-14T13:05:14.472Z,25.05
2018-07-14T13:07:43.503Z,25.04
2018-07-14T13:10:12.187Z,25.09
2018-07-14T13:12:42.398Z,25.12
2018-07-14T13:15:12.441Z,25.08
2018-07-14T13:17:41.269Z,24.70
2018-07-14T13:20:10.790Z,24.70
2018-07-14T13:22:40.214Z,24.95
2018-07-14T13:25:08.777Z,24.87
2018-07-14T13:27:38.639Z,24.63
2018-07-14T13:30:09.158Z,24.69
2018-07-14T13:32:38.898Z,24.45
2018-07-14T13:35:07.706Z,24.42
2018-07-14T13:37:36.310Z,24.72
2018-07-14T13:40:05.724Z,25.07
2018-07-14T13:42:35.285Z,25.11
2018-07-14T13:45:04.520Z,25.25
2018-07-14T13:47:34.429Z,25.35
2018-07-14T13:50:03.162Z,25.35
2018-07-14T13:52:33.313Z,25.56
2018-07-14T13:55:02.366Z,25.76
2018-07-14T13:57:30.954Z,25.89
2018-07-14T13:59:59.619Z,25.58
2018-07-14T14:02:28.322Z,25.67
2018-07-14T14:04:56.987Z,25.35
2018-07-14T14:07:26.182Z,25.22
2018-07-14T14:09:56.674Z,25.12
2018-07-14T14:12:25.886Z,24.71
2018-07-14T14:14:55.003Z,24.51
2018-07-14T14:17:24.278Z,24.86
2018-07-14T14:19:52.955Z,25.30
2018-07-14T14:22:21.516Z,25.20
2018-07-14T14:24:50.385Z,24.81
2018-07-14T14:27:19.673Z,24.57
2018-07-14T14:29:48.276Z,24.68
2018-07-14T14:32:16.840Z,24.93
2018-07-14T14:34:45.538Z,25.05
2018-07-14T14:37:15.011Z,25.39
2018-07-14T14:39:43.717Z,25.53
2018-07-14T14:42:12.847Z,25.55
2018-07-14T14:44:41.561Z,25.84
2018-07-14T14:47:10.265Z,26.07
2018-07-14T14:49:39.048Z,26.25
2018-07-14T14:52:08.142Z,26.46
2018-07-14T14:54:36.974Z,26.63
2018-07-14T14:57:07.037Z,26.52
2018-07-14T14:59:35.565Z,26.22
2018-07-14T15:02:04.375Z,26.37
2018-07-14T15:04:32.922Z,26.01
2018-07-14T15:07:02.056Z,25.69
2018-07-14T15:09:31.473Z,25.83
2018-07-14T15:12:00.150Z,25.78
2018-07-14T15:14:28.784Z,25.88
2018-07-14T15:16:57.580Z,26.12
2018-07-14T15:19:26.484Z,26.34
2018-07-14T15:21:55.082Z,26.68
2018-07-14T15:24:23.966Z,27.00
2018-07-14T15:26:53.476Z,27.21
2018-07-14T15:29:22.443Z,27.44
2018-07-14T15:38:40.509Z,27.31
2018-07-14T15:41:09.103Z,27.21
2018-07-14T15:43:37.695Z,27.27
2018-07-14T15:46:06.522Z,27.16
2018-07-14T15:48:39.496Z,27.12
2018-07-14T15:51:08.658Z,27.55
2018-07-14T15:53:38.125Z,27.61
2018-07-14T15:56:07.029Z,27.78
2018-07-14T15:58:35.513Z,27.69
2018-07-14T16:01:05.142Z,27.75
2018-07-14T16:03:33.940Z,27.83
2018-07-14T16:06:02.592Z,27.73
2018-07-14T16:08:32.222Z,27.84
2018-07-14T16:11:00.818Z,27.93
2018-07-14T16:13:29.462Z,27.69
2018-07-14T16:16:00.027Z,27.89
2018-07-14T16:18:28.603Z,28.00
2018-07-14T16:20:57.189Z,27.60
2018-07-14T16:23:26.205Z,27.74
2018-07-14T16:25:54.939Z,28.08
2018-07-14T16:28:24.197Z,28.60
2018-07-14T16:30:53.336Z,28.92
2018-07-14T16:33:21.984Z,28.99
2018-07-14T16:35:51.139Z,29.00
2018-07-14T16:38:19.658Z,28.99
2018-07-14T16:40:48.855Z,28.67
2018-07-14T16:43:17.437Z,28.84
2018-07-14T16:45:46.047Z,28.96
2018-07-14T16:48:14.713Z,28.78
2018-07-14T16:50:43.559Z,28.55
2018-07-14T16:53:13.110Z,28.24
2018-07-14T16:55:41.713Z,28.13
2018-07-14T16:58:10.313Z,27.92
2018-07-14T17:00:39.108Z,27.75
2018-07-14T17:03:08.917Z,27.52
2018-07-14T17:05:37.488Z,27.22
2018-07-14T17:08:09.195Z,27.27
2018-07-14T17:10:39.142Z,26.96
2018-07-14T17:13:08.035Z,26.64
2018-07-14T17:15:37.306Z,26.60
2018-07-14T17:18:06.261Z,26.23
2018-07-14T17:20:34.844Z,26.14
2018-07-14T17:23:03.670Z,26.20
2018-07-14T17:25:33.196Z,26.18
2018-07-14T17:28:01.850Z,26.13
2018-07-14T17:30:30.335Z,26.12
2018-07-14T17:32:58.855Z,25.76
2018-07-14T17:35:27.444Z,25.51
2018-07-14T17:37:56.666Z,25.44
2018-07-14T17:40:25.620Z,25.36
2018-07-14T17:42:55.622Z,25.28
2018-07-14T17:45:24.627Z,25.11
2018-07-14T17:47:53.066Z,24.94
2018-07-14T17:50:22.655Z,24.87
2018-07-14T17:52:51.396Z,24.76
2018-07-14T17:55:20.263Z,24.52
2018-07-14T17:57:48.846Z,24.38
2018-07-14T18:00:17.406Z,24.22
2018-07-14T18:02:46.057Z,24.23
2018-07-14T18:05:14.655Z,24.19
2018-07-14T18:07:43.186Z,24.21
2018-07-14T18:10:13.354Z,24.15
2018-07-14T18:12:42.767Z,24.11
2018-07-14T18:15:12.168Z,24.06
2018-07-14T18:17:41.273Z,23.99
2018-07-14T18:20:10.208Z,23.94
2018-07-14T18:22:38.722Z,23.83
2018-07-14T18:25:07.325Z,23.77
2018-07-14T18:27:35.844Z,23.72
2018-07-14T18:30:04.648Z,23.70
2018-07-14T18:32:33.828Z,23.66
2018-07-14T18:35:02.579Z,23.64
2018-07-14T18:37:32.176Z,23.58
2018-07-14T18:40:02.095Z,23.49
2018-07-14T18:42:30.867Z,23.46
2018-07-14T18:44:59.955Z,23.41
2018-07-14T18:47:28.608Z,23.30
2018-07-14T18:49:57.867Z,23.20
2018-07-14T18:52:27.761Z,23.16
2018-07-14T18:54:56.261Z,23.09
2018-07-14T18:57:25.434Z,22.98
2018-07-14T18:59:54.708Z,22.90
2018-07-14T19:02:23.236Z,22.84
2018-07-14T19:04:52.677Z,22.77
2018-07-14T19:07:21.594Z,22.70
2018-07-14T19:09:50.510Z,22.65
2018-07-14T19:12:19.945Z,22.58
2018-07-14T19:14:50.167Z,22.55
2018-07-14T19:17:18.989Z,22.40
2018-07-14T19:19:48.182Z,22.30
2018-07-14T19:22:16.857Z,22.27
2018-07-14T19:24:45.580Z,22.19
2018-07-14T19:27:15.113Z,22.16
2018-07-14T19:32:11.262Z,21.99
2018-07-14T19:34:40.569Z,21.86
2018-07-14T19:37:09.360Z,21.70
2018-07-14T19:39:38.986Z,21.64
2018-07-14T19:42:08.204Z,21.60
2018-07-14T19:44:37.002Z,21.64
2018-07-14T19:47:05.647Z,21.63
2018-07-14T19:49:34.195Z,21.62
2018-07-14T19:52:02.844Z,21.51
2018-07-14T19:54:32.363Z,21.41
2018-07-14T19:57:01.066Z,21.40
2018-07-14T19:59:30.376Z,21.35
2018-07-14T20:01:59.006Z,21.30
2018-07-14T20:04:28.361Z,21.25
2018-07-14T20:06:57.761Z,21.22
2018-07-14T20:09:26.286Z,21.21
2018-07-14T20:11:54.922Z,21.15
2018-07-14T20:14:23.461Z,21.13
2018-07-14T20:16:52.785Z,21.12
2018-07-14T20:19:22.157Z,21.02
2018-07-14T20:21:50.725Z,20.96
2018-07-14T20:24:20.038Z,20.98
2018-07-14T20:26:48.559Z,20.97
2018-07-14T20:29:18.024Z,20.95
2018-07-14T20:31:47.707Z,20.86
2018-07-14T20:34:16.701Z,20.81
2018-07-14T20:36:45.637Z,20.81
2018-07-14T20:39:14.472Z,20.76
2018-07-14T20:41:43.137Z,20.65
2018-07-14T20:44:12.100Z,20.57
2018-07-14T20:46:40.785Z,20.52
2018-07-14T20:49:09.611Z,20.50
2018-07-14T20:51:38.586Z,20.43
2018-07-14T20:54:07.744Z,20.45
2018-07-14T20:56:36.316Z,20.48
2018-07-14T20:59:04.796Z,20.39
2018-07-14T21:01:33.517Z,20.34
2018-07-14T21:04:02.215Z,20.33
2018-07-14T21:06:30.684Z,20.33
2018-07-14T21:09:01.346Z,20.32
2018-07-14T21:11:30.600Z,20.29
2018-07-14T21:13:59.691Z,20.31
2018-07-14T21:16:29.356Z,20.21
2018-07-14T21:18:58.754Z,20.11
2018-07-14T21:21:27.887Z,20.06
2018-07-14T21:23:57.255Z,20.05
2018-07-14T21:26:26.519Z,19.98
2018-07-14T21:28:55.079Z,19.99
2018-07-14T21:31:24.025Z,20.02
2018-07-14T21:33:52.614Z,19.98
2018-07-14T21:36:21.184Z,19.97
2018-07-14T21:38:51.123Z,19.97
2018-07-14T21:41:20.074Z,19.91
2018-07-14T21:43:48.833Z,19.93
2018-07-14T21:46:17.432Z,19.81
2018-07-14T21:48:47.644Z,19.84
2018-07-14T21:51:16.813Z,19.81
2018-07-14T21:53:46.606Z,19.77
2018-07-14T21:56:15.130Z,19.66
2018-07-14T21:58:43.669Z,19.64
2018-07-14T22:01:18.303Z,19.64
2018-07-14T22:03:47.428Z,19.62
2018-07-14T22:06:16.588Z,19.60
2018-07-14T22:08:46.917Z,19.61
2018-07-14T22:11:15.754Z,19.57
2018-07-14T22:13:45.172Z,19.54
2018-07-14T22:16:13.715Z,19.51
2018-07-14T22:18:42.182Z,19.47
2018-07-14T22:21:10.862Z,19.42
2018-07-14T22:23:39.848Z,19.40
2018-07-14T22:26:08.569Z,19.33
2018-07-14T22:28:37.696Z,19.28
2018-07-14T22:31:06.576Z,19.26
2018-07-14T22:33:35.199Z,19.26
2018-07-14T22:36:03.761Z,19.25
2018-07-14T22:38:32.395Z,19.22
2018-07-14T22:41:01.018Z,19.22
2018-07-14T22:43:30.327Z,19.19
2018-07-14T22:45:58.873Z,19.13
2018-07-14T22:48:27.597Z,19.08
2018-07-14T22:50:57.199Z,19.05
2018-07-14T22:53:26.851Z,18.98
2018-07-14T22:55:57.384Z,18.97
2018-07-14T22:58:27.939Z,18.91
2018-07-14T23:00:57.360Z,18.89
2018-07-14T23:03:26.528Z,18.86
2018-07-14T23:05:55.150Z,18.81
2018-07-14T23:08:24.741Z,18.81
2018-07-14T23:10:54.724Z,18.81
2018-07-14T23:13:23.455Z,18.75
2018-07-14T23:15:52.145Z,18.74
2018-07-14T23:18:23.549Z,18.68
2018-07-14T23:20:54.449Z,18.63
2018-07-14T23:23:24.692Z,18.58
2018-07-14T23:25:53.616Z,18.53
2018-07-14T23:28:22.546Z,18.51
2018-07-14T23:30:52.150Z,18.57
2018-07-14T23:33:21.357Z,18.59
2018-07-14T23:35:50.953Z,18.56
2018-07-14T23:38:19.536Z,18.53
2018-07-14T23:40:48.052Z,18.52
2018-07-14T23:43:17.489Z,18.45
2018-07-14T23:45:47.352Z,18.49
2018-07-14T23:48:15.941Z,18.46
2018-07-14T23:50:44.552Z,18.47
2018-07-14T23:53:13.290Z,18.48
2018-07-14T23:55:41.869Z,18.52
2018-07-14T23:58:11.016Z,18.54
